Time;durP1;ratioP1;P1;durP2;ratioP2;P2;SDS_P1;SDS_P2;PMS_P1;PMS_P2;Temp;Humidity;BMP_temperature;BMP_pressure;BME280_temperature;BME280_humidity;BME280_pressure;Samples;Min_cycle;Max_cycle;Signal;HPM_P1;HPM_P2
2021/01/12 00:04:51;;;;;;;21.08;6.10;;;;;;;5.64;100.00;100866.75;10438264;28;20052;-77
2021/01/12 00:09:51;;;;;;;23.25;7.13;;;;;;;6.23;100.00;100941.06;10439708;28;20117;-77
2021/01/12 00:14:52;;;;;;;17.60;6.80;;;;;;;5.78;100.00;100856.56;10457014;28;20055;-77
2021/01/12 00:19:52;;;;;;;19.48;6.32;;;;;;;6.23;100.00;100898.91;10445480;28;20045;-77
2021/01/12 00:24:53;;;;;;;22.63;7.20;;;;;;;6.28;100.00;100887.97;10455800;28;20047;-77
2021/01/12 00:29:53;;;;;;;22.48;6.97;;;;;;;6.22;100.00;100886.59;10452584;28;20056;-78
2021/01/12 00:34:57;;;;;;;20.23;8.13;;;;;;;6.12;100.00;100860.16;10455966;28;20037;-77
2021/01/12 00:39:57;;;;;;;26.95;7.88;;;;;;;6.27;100.00;100862.22;10452054;28;20028;-77
2021/01/12 00:44:58;;;;;;;22.45;8.77;;;;;;;6.37;100.00;100871.00;10435204;28;20523;-77
2021/01/12 00:49:58;;;;;;;28.25;9.32;;;;;;;6.03;100.00;100781.63;10452166;28;20086;-77
2021/01/12 00:54:58;;;;;;;26.13;11.13;;;;;;;6.28;100.00;100810.13;10431281;28;20040;-77
2021/01/12 00:59:59;;;;;;;18.83;7.88;;;;;;;6.04;100.00;100772.44;10416785;28;20099;-76
2021/01/12 01:04:59;;;;;;;23.02;9.80;;;;;;;6.22;100.00;100768.50;10413944;28;20036;-77
2021/01/12 01:10:00;;;;;;;35.17;10.60;;;;;;;6.29;100.00;100768.72;10452887;28;20041;-77
2021/01/12 01:15:00;;;;;;;31.08;10.60;;;;;;;6.25;100.00;100759.75;10448734;28;20244;-77
2021/01/12 01:20:01;;;;;;;23.15;10.05;;;;;;;6.37;100.00;100774.34;10426903;28;20056;-77
2021/01/12 01:25:05;;;;;;;29.92;9.20;;;;;;;6.61;100.00;100795.09;10448852;28;20131;-76
2021/01/12 01:30:06;;;;;;;24.33;9.82;;;;;;;6.61;100.00;100812.00;10452438;28;20052;-77
2021/01/12 01:35:09;;;;;;;29.40;9.23;;;;;;;6.46;100.00;100766.97;10434287;28;20501;-76
2021/01/12 01:40:10;;;;;;;31.92;9.90;;;;;;;6.67;100.00;100783.81;10458954;28;20040;-77
2021/01/12 01:45:11;;;;;;;33.58;8.27;;;;;;;6.64;100.00;100792.53;10449384;28;20033;-77
2021/01/12 01:50:18;;;;;;;26.80;8.27;;;;;;;6.35;100.00;100719.09;10438873;28;20039;-77
2021/01/12 01:55:19;;;;;;;29.90;7.53;;;;;;;6.43;100.00;100724.69;10449547;28;20036;-77
2021/01/12 02:00:20;;;;;;;21.75;5.95;;;;;;;6.75;100.00;100764.13;10443049;28;20041;-77
2021/01/12 02:05:27;;;;;;;26.75;4.88;;;;;;;6.68;100.00;100763.09;10447555;28;20725;-78
2021/01/12 02:10:28;;;;;;;42.08;6.78;;;;;;;6.45;100.00;100692.94;10463473;28;20040;-77
2021/01/12 02:15:31;;;;;;;23.40;4.95;;;;;;;6.80;100.00;100748.88;10421385;28;20045;-76
2021/01/12 02:20:31;;;;;;;26.17;4.95;;;;;;;6.65;100.00;100726.94;10437532;28;20060;-77
2021/01/12 02:25:34;;;;;;;30.85;4.63;;;;;;;6.58;100.00;100689.09;10439077;28;20051;-76
2021/01/12 02:30:36;;;;;;;26.40;4.07;;;;;;;6.83;100.00;100737.50;10446508;28;20079;-76
2021/01/12 02:35:40;;;;;;;30.07;4.80;;;;;;;6.76;100.00;100701.22;10439538;28;20025;-77
2021/01/12 02:40:40;;;;;;;28.80;4.63;;;;;;;6.68;100.00;100688.69;10426842;28;20044;-77
2021/01/12 02:45:41;;;;;;;28.23;4.70;;;;;;;6.88;100.00;100686.19;10425249;28;20039;-76
2021/01/12 02:50:41;;;;;;;29.35;5.57;;;;;;;6.91;100.00;100698.97;10431051;28;20043;-76
2021/01/12 02:55:42;;;;;;;34.28;4.40;;;;;;;6.86;100.00;100677.69;10437786;28;20060;-76
2021/01/12 03:00:42;;;;;;;26.02;4.55;;;;;;;6.89;100.00;100666.25;10459764;28;20048;-76
2021/01/12 03:05:42;;;;;;;34.30;3.88;;;;;;;6.85;100.00;100660.03;10428169;28;20093;-76
2021/01/12 03:10:43;;;;;;;32.90;4.38;;;;;;;6.99;100.00;100660.44;10459413;28;20052;-76
2021/01/12 03:15:46;;;;;;;22.95;3.40;;;;;;;7.01;100.00;100663.56;10449553;28;20483;-76
2021/01/12 03:20:46;;;;;;;22.83;3.55;;;;;;;6.63;100.00;100576.09;10453157;28;20060;-76
2021/01/12 03:25:47;;;;;;;18.55;3.20;;;;;;;6.90;100.00;100635.59;10441779;28;20099;-76
2021/01/12 03:30:47;;;;;;;21.35;3.53;;;;;;;6.75;100.00;100565.34;10453709;28;20743;-75
2021/01/12 03:35:48;;;;;;;22.50;3.60;;;;;;;7.08;100.00;100615.41;10436678;28;20106;-76
2021/01/12 03:40:55;;;;;;;23.30;3.72;;;;;;;7.03;100.00;100596.84;10444188;28;20468;-76
2021/01/12 03:45:55;;;;;;;26.50;2.88;;;;;;;6.82;100.00;100539.78;10459918;28;20044;-76
2021/01/12 03:50:56;;;;;;;21.83;3.30;;;;;;;7.20;100.00;100603.84;10436363;28;20449;-76
2021/01/12 03:55:56;;;;;;;16.92;3.00;;;;;;;7.27;100.00;100600.56;10462742;28;20549;-76
2021/01/12 04:00:57;;;;;;;21.42;3.33;;;;;;;7.20;100.00;100580.41;10419274;28;20041;-76
2021/01/12 04:06:01;;;;;;;27.63;3.88;;;;;;;7.25;100.00;100586.69;10442867;28;20056;-76
2021/01/12 04:11:02;;;;;;;22.13;3.55;;;;;;;7.30;100.00;100576.44;10451663;28;20455;-76
2021/01/12 04:16:03;;;;;;;18.98;4.30;;;;;;;7.20;100.00;100561.59;10454021;28;20508;-77
2021/01/12 04:21:03;;;;;;;21.55;2.60;;;;;;;6.74;100.00;100477.78;10430639;28;20052;-76
2021/01/12 04:26:06;;;;;;;20.73;3.38;;;;;;;7.30;100.00;100551.47;10447975;28;20067;-78
2021/01/12 04:31:07;;;;;;;21.48;3.13;;;;;;;7.39;100.00;100560.16;10453689;28;20051;-78
2021/01/12 04:36:08;;;;;;;18.80;3.20;;;;;;;7.29;100.00;100523.00;10445593;28;20045;-78
2021/01/12 04:41:08;;;;;;;21.13;3.42;;;;;;;7.12;100.00;100481.88;10451939;28;20032;-78
2021/01/12 04:46:08;;;;;;;20.48;2.72;;;;;;;7.40;100.00;100503.34;10450610;28;20057;-75
2021/01/12 04:51:09;;;;;;;23.58;3.83;;;;;;;7.00;100.00;100447.00;10446335;28;20052;-75
2021/01/12 04:56:10;;;;;;;18.33;3.28;;;;;;;7.04;100.00;100436.34;10421704;28;20045;-78
2021/01/12 05:01:23;;;;;;;18.65;2.92;;;;;;;7.17;100.00;100446.69;10436439;28;20036;-75
2021/01/12 05:06:25;;;;;;;14.80;2.83;;;;;;;7.25;100.00;100433.44;10451455;28;20032;-78
2021/01/12 05:11:29;;;;;;;19.23;2.40;;;;;;;7.38;100.00;100451.03;10458366;28;20511;-73
2021/01/12 05:16:29;;;;;;;18.17;3.67;;;;;;;7.59;100.00;100489.19;10442203;28;20037;-72
2021/01/12 05:21:33;;;;;;;18.30;3.40;;;;;;;7.58;100.00;100468.81;10458041;28;20044;-83
2021/01/12 05:26:36;;;;;;;19.95;2.65;;;;;;;7.39;100.00;100436.47;10471635;28;20037;-78
2021/01/12 05:31:37;;;;;;;17.50;3.35;;;;;;;7.34;100.00;100423.28;10456038;28;20036;-79
2021/01/12 05:36:49;;;;;;;27.50;4.07;;;;;;;7.25;100.00;100414.63;10440232;28;20511;-84
2021/01/12 05:41:57;;;;;;;27.50;4.57;;;;;;;7.58;100.00;100476.91;10439060;28;20682;-82
2021/01/12 05:46:57;;;;;;;31.67;4.40;;;;;;;7.40;100.00;100433.41;10436655;28;20391;-77
2021/01/12 05:51:58;;;;;;;29.08;5.03;;;;;;;7.62;100.00;100456.25;10479180;28;20042;-78
2021/01/12 05:57:08;;;;;;;32.65;4.57;;;;;;;7.60;100.00;100447.75;10461959;28;20036;-79
2021/01/12 06:02:09;;;;;;;29.52;4.57;;;;;;;7.41;100.00;100428.84;10461685;28;20092;-81
2021/01/12 06:07:10;;;;;;;29.07;4.17;;;;;;;7.26;100.00;100416.16;10459230;28;20095;-78
2021/01/12 06:12:12;;;;;;;22.85;3.60;;;;;;;7.50;100.00;100450.97;10463017;28;20043;-78
2021/01/12 06:17:13;;;;;;;28.27;4.63;;;;;;;6.73;100.00;100333.88;10481158;28;20036;-83
2021/01/12 06:22:23;;;;;;;34.47;5.20;;;;;;;7.40;100.00;100443.41;10466478;28;20051;-78
2021/01/12 06:27:32;;;;;;;28.23;4.05;;;;;;;7.54;100.00;100481.41;10486916;28;20677;-80
2021/01/12 06:32:34;;;;;;;25.52;4.53;;;;;;;7.28;100.00;100440.81;10498642;28;20032;-78
2021/01/12 06:37:37;;;;;;;32.95;6.15;;;;;;;6.57;100.00;100349.19;10499317;28;20074;-79
2021/01/12 06:42:38;;;;;;;24.83;3.67;;;;;;;7.57;100.00;100513.00;10473561;28;20028;-82
2021/01/12 06:47:38;;;;;;;12.52;2.85;;;;;;;7.05;100.00;100422.56;10493589;28;20060;-78
2021/01/12 06:52:49;;;;;;;14.48;2.40;;;;;;;7.42;100.00;100484.19;10495129;28;20056;-80
2021/01/12 06:57:51;;;;;;;19.02;2.83;;;;;;;7.47;100.00;100510.81;10504282;28;20071;-79
2021/01/12 07:02:55;;;;;;;16.67;2.72;;;;;;;7.03;100.00;100451.72;10456563;28;20032;-78
2021/01/12 07:07:56;;;;;;;12.10;2.28;;;;;;;7.10;100.00;100473.41;10495245;28;20130;-78
2021/01/12 07:12:57;;;;;;;14.10;3.08;;;;;;;7.38;100.00;100521.75;10500062;28;20763;-79
2021/01/12 07:17:58;;;;;;;12.52;1.70;;;;;;;6.92;100.00;100466.75;10497422;28;20028;-79
2021/01/12 07:23:10;;;;;;;15.93;2.10;;;;;;;7.32;100.00;100533.09;10497112;28;20052;-80
2021/01/12 07:28:20;;;;;;;19.05;2.70;;;;;;;7.36;100.00;100550.09;10502340;28;20065;-84
2021/01/12 07:33:23;;;;;;;15.95;2.30;;;;;;;6.97;100.00;100528.31;10474485;28;20134;-80
2021/01/12 07:38:28;;;;;;;20.23;2.65;;;;;;;6.83;100.00;100498.38;10494096;28;20097;-79
2021/01/12 07:43:28;;;;;;;18.60;2.47;;;;;;;7.03;100.00;100543.09;10475117;28;20120;-79
2021/01/12 07:48:29;;;;;;;19.05;2.35;;;;;;;7.14;100.00;100581.00;10498315;28;20040;-79
2021/01/12 07:53:31;;;;;;;27.85;2.55;;;;;;;7.19;100.00;100600.34;10498545;28;20039;-80
2021/01/12 07:58:31;;;;;;;13.70;2.47;;;;;;;7.20;100.00;100601.91;10496307;28;20028;-80
2021/01/12 08:03:35;;;;;;;9.95;1.77;;;;;;;7.17;100.00;100608.00;10480316;28;20630;-79
2021/01/12 08:08:35;;;;;;;7.43;2.33;;;;;;;6.81;100.00;100557.03;10490710;28;21629;-80
2021/01/12 08:13:36;;;;;;;16.95;3.75;;;;;;;6.38;100.00;100512.81;10493480;28;20039;-80
2021/01/12 08:18:36;;;;;;;7.32;2.90;;;;;;;7.07;100.00;100635.31;10494472;28;20060;-79
2021/01/12 08:23:37;;;;;;;12.85;3.35;;;;;;;7.03;100.00;100634.47;10452470;28;20758;-79
2021/01/12 08:28:46;;;;;;;14.05;3.72;;;;;;;6.90;100.00;100636.38;10472878;28;20505;-80
2021/01/12 08:33:50;;;;;;;10.15;3.63;;;;;;;6.98;100.00;100637.38;10495551;28;20358;-80
2021/01/12 08:38:53;;;;;;;16.15;4.35;;;;;;;6.70;100.00;100615.81;10466627;28;20206;-79
2021/01/12 08:43:57;;;;;;;15.38;4.22;;;;;;;6.95;100.00;100670.28;10476127;28;20032;-81
2021/01/12 08:48:57;;;;;;;15.30;4.22;;;;;;;6.93;100.00;100657.19;10461209;28;20036;-79
2021/01/12 08:53:59;;;;;;;16.38;5.07;;;;;;;7.13;100.00;100703.88;10500783;28;20052;-80
2021/01/12 08:59:04;;;;;;;23.97;3.30;;;;;;;6.66;100.00;100642.56;10484871;28;20574;-80
2021/01/12 09:04:09;;;;;;;12.30;2.65;;;;;;;6.99;100.00;100703.44;10486758;28;20047;-80
2021/01/12 09:09:13;;;;;;;11.98;2.17;;;;;;;6.96;100.00;100706.78;10470704;28;20097;-80
2021/01/12 09:14:17;;;;;;;12.15;1.48;;;;;;;7.06;100.00;100719.00;10497817;28;20072;-80
2021/01/12 09:19:20;;;;;;;9.80;2.33;;;;;;;7.10;100.00;100731.44;10478911;28;20048;-81
2021/01/12 09:24:21;;;;;;;9.75;1.70;;;;;;;6.95;100.00;100691.78;10430055;28;20712;-80
2021/01/12 09:29:21;;;;;;;11.38;1.30;;;;;;;7.47;98.11;100774.38;10433795;28;20101;-81
2021/01/12 09:34:23;;;;;;;8.88;1.40;;;;;;;7.40;95.27;100782.25;10427942;28;20051;-81
2021/01/12 09:39:26;;;;;;;8.35;1.35;;;;;;;7.25;96.24;100791.78;10380243;28;21570;-81
2021/01/12 09:44:27;;;;;;;7.38;1.17;;;;;;;7.15;96.28;100793.03;10418665;28;20453;-81
2021/01/12 09:49:27;;;;;;;8.57;1.67;;;;;;;7.27;94.78;100821.03;10444121;28;20047;-80
2021/01/12 09:54:28;;;;;;;4.90;0.80;;;;;;;7.37;93.60;100836.72;10410105;28;20037;-81
2021/01/12 09:59:28;;;;;;;7.85;1.00;;;;;;;7.31;94.25;100838.03;10451795;28;20074;-81
2021/01/12 10:04:28;;;;;;;8.50;1.73;;;;;;;6.96;92.84;100795.47;10411632;28;20041;-80
2021/01/12 10:09:29;;;;;;;9.50;1.27;;;;;;;7.24;92.78;100865.50;10423104;28;20036;-82
2021/01/12 10:14:30;;;;;;;8.07;0.88;;;;;;;7.15;92.88;100868.31;10456983;28;20048;-80
2021/01/12 10:19:30;;;;;;;4.65;1.00;;;;;;;7.11;93.44;100878.16;10422058;28;20501;-78
2021/01/12 10:24:31;;;;;;;7.93;1.45;;;;;;;7.25;93.21;100893.19;10458159;28;20068;-78
2021/01/12 10:29:32;;;;;;;9.10;0.95;;;;;;;7.58;92.33;100885.78;10427182;28;20040;-76
2021/01/12 10:34:32;;;;;;;9.65;1.40;;;;;;;7.96;91.08;100906.13;10454595;28;20029;-76
2021/01/12 10:39:33;;;;;;;10.15;1.30;;;;;;;7.69;88.85;100847.66;10437847;28;20760;-75
2021/01/12 10:44:33;;;;;;;12.70;1.52;;;;;;;7.65;88.45;100865.59;10453996;28;20041;-75
2021/01/12 10:49:34;;;;;;;10.13;1.85;;;;;;;7.68;87.86;100886.44;10449281;28;20098;-75
2021/01/12 10:54:35;;;;;;;10.88;2.00;;;;;;;7.35;87.30;100892.72;10424234;28;20056;-75
2021/01/12 10:59:35;;;;;;;17.20;2.10;;;;;;;7.76;88.24;100939.34;10435484;28;20029;-75
2021/01/12 11:04:36;;;;;;;8.30;1.50;;;;;;;7.62;85.39;100939.72;10459488;28;20672;-79
2021/01/12 11:09:36;;;;;;;8.85;1.77;;;;;;;6.81;87.59;100880.22;10411366;28;20083;-77
2021/01/12 11:14:37;;;;;;;11.13;1.48;;;;;;;7.59;86.39;100961.88;10452982;28;20036;-82
2021/01/12 11:19:38;;;;;;;6.95;1.10;;;;;;;7.65;83.73;100970.53;10429450;28;20052;-75
2021/01/12 11:24:39;;;;;;;9.85;2.17;;;;;;;7.77;83.18;100924.78;10428501;28;20071;-80
2021/01/12 11:29:39;;;;;;;4.53;1.30;;;;;;;7.74;83.00;100979.28;10453619;28;20049;-75
2021/01/12 11:34:40;;;;;;;10.85;1.50;;;;;;;7.40;87.25;100986.63;10426155;28;20098;-76
2021/01/12 11:39:41;;;;;;;10.75;1.92;;;;;;;7.10;88.21;100935.72;10436355;28;20055;-75
2021/01/12 11:44:42;;;;;;;9.32;1.23;;;;;;;7.60;83.81;100991.16;10451007;28;20039;-76
2021/01/12 11:49:42;;;;;;;11.27;1.42;;;;;;;7.49;83.32;100935.44;10433511;28;20734;-75
2021/01/12 11:54:43;;;;;;;6.45;1.52;;;;;;;7.36;80.54;100867.41;10443737;28;20037;-76
2021/01/12 11:59:44;;;;;;;9.20;2.25;;;;;;;8.01;80.88;101000.13;10452197;28;20040;-75
2021/01/12 12:04:44;;;;;;;5.95;1.30;;;;;;;7.48;81.11;100955.38;10451264;28;20044;-75
2021/01/12 12:09:45;;;;;;;13.73;1.58;;;;;;;7.54;81.66;101005.94;10448999;28;20043;-76
2021/01/12 12:14:47;;;;;;;8.73;1.20;;;;;;;7.43;79.66;100985.97;10451543;28;20120;-76
2021/01/12 12:19:47;;;;;;;8.63;2.67;;;;;;;7.34;78.74;100963.78;10441106;28;20135;-76
2021/01/12 12:24:48;;;;;;;10.63;1.50;;;;;;;7.68;78.74;101018.28;10442568;28;20068;-76
2021/01/12 12:29:48;;;;;;;11.45;2.22;;;;;;;7.55;75.87;100994.06;10449367;28;20274;-76
2021/01/12 12:34:49;;;;;;;11.15;1.58;;;;;;;7.34;73.47;101004.13;10445440;28;20040;-76
2021/01/12 12:39:49;;;;;;;8.40;1.35;;;;;;;6.38;74.32;100884.09;10449787;28;20036;-75
2021/01/12 12:44:50;;;;;;;7.40;1.60;;;;;;;6.72;71.48;100985.06;10447551;28;20040;-77
2021/01/12 12:49:51;;;;;;;15.15;1.30;;;;;;;7.39;69.71;101055.00;10441853;28;20048;-77
2021/01/12 12:54:51;;;;;;;8.75;2.15;;;;;;;7.08;69.08;101007.84;10408552;28;20124;-77
2021/01/12 12:59:52;;;;;;;8.00;1.20;;;;;;;7.35;67.68;101027.19;10437156;28;20036;-76
2021/01/12 13:04:53;;;;;;;8.68;1.33;;;;;;;7.13;66.38;100999.56;10403095;28;20056;-76
2021/01/12 13:09:53;;;;;;;15.93;1.27;;;;;;;7.00;67.06;101038.28;10429108;28;20044;-77
2021/01/12 13:14:56;;;;;;;8.98;1.10;;;;;;;6.87;66.04;101044.72;10399817;28;20075;-76
2021/01/12 13:20:05;;;;;;;8.27;1.10;;;;;;;6.65;65.05;101000.16;10432025;28;20226;-77
2021/01/12 13:25:07;;;;;;;5.15;1.15;;;;;;;7.16;65.20;101071.50;10445055;28;20048;-76
2021/01/12 13:30:09;;;;;;;7.57;1.08;;;;;;;7.12;64.42;101041.00;10424602;28;20404;-76
2021/01/12 13:35:10;;;;;;;8.13;1.23;;;;;;;7.43;63.34;101093.53;10449768;28;20086;-76
2021/01/12 13:40:12;;;;;;;10.43;1.33;;;;;;;6.46;63.85;100971.06;10439748;28;21240;-75
2021/01/12 13:45:14;;;;;;;8.20;1.83;;;;;;;6.81;65.31;101099.75;10440257;28;20048;-77
2021/01/12 13:50:15;;;;;;;11.23;1.15;;;;;;;6.83;64.36;101108.28;10451814;28;20282;-78
2021/01/12 13:55:16;;;;;;;10.55;1.40;;;;;;;7.14;63.91;101105.97;10458217;28;20037;-77
2021/01/12 14:00:17;;;;;;;8.82;0.98;;;;;;;7.01;63.67;101055.97;10438986;28;20041;-77
2021/01/12 14:05:17;;;;;;;17.30;1.27;;;;;;;6.94;62.38;101082.59;10442632;28;20367;-76
2021/01/12 14:10:21;;;;;;;9.85;1.48;;;;;;;7.02;63.13;101114.00;10417233;28;20048;-77
2021/01/12 14:15:23;;;;;;;7.88;1.45;;;;;;;6.96;63.07;101115.28;10454107;28;20110;-77
2021/01/12 14:20:25;;;;;;;5.30;0.93;;;;;;;6.85;62.17;101127.56;10437360;28;20071;-77
2021/01/12 14:25:28;;;;;;;7.72;1.73;;;;;;;7.01;64.02;101147.38;10460653;28;20053;-77
2021/01/12 14:30:29;;;;;;;11.68;1.83;;;;;;;6.68;63.96;101104.25;10434564;28;20052;-76
2021/01/12 14:35:31;;;;;;;7.85;2.17;;;;;;;6.30;64.80;101076.38;10439321;28;20891;-76
2021/01/12 14:40:37;;;;;;;6.75;1.67;;;;;;;6.38;64.53;101124.97;10437814;28;20086;-76
2021/01/12 14:45:39;;;;;;;13.63;1.85;;;;;;;6.42;65.24;101131.25;10438965;28;20045;-76
2021/01/12 14:50:39;;;;;;;6.10;1.20;;;;;;;6.26;66.42;101128.34;10430118;28;20056;-76
2021/01/12 14:55:40;;;;;;;9.80;1.67;;;;;;;6.56;66.57;101174.78;10447253;28;20763;-74
2021/01/12 15:00:40;;;;;;;13.68;1.75;;;;;;;6.25;67.56;101181.22;10437479;28;20066;-77
2021/01/12 15:05:40;;;;;;;12.25;1.67;;;;;;;6.17;68.33;101198.16;10453385;28;20370;-76
2021/01/12 15:10:42;;;;;;;10.45;1.75;;;;;;;5.83;70.45;101186.38;10419381;28;20489;-75
2021/01/12 15:15:44;;;;;;;7.25;1.58;;;;;;;5.53;71.78;101176.59;10463432;28;20078;-76
2021/01/12 15:20:45;;;;;;;12.25;3.20;;;;;;;5.64;72.85;101231.50;10438539;28;20049;-76
2021/01/12 15:25:45;;;;;;;10.52;1.95;;;;;;;5.40;73.53;101205.94;10420913;28;20102;-76
2021/01/12 15:30:46;;;;;;;11.80;2.60;;;;;;;5.00;73.85;101179.25;10430149;28;20044;-75
2021/01/12 15:35:46;;;;;;;5.45;1.85;;;;;;;4.96;73.75;101197.06;10443072;28;20048;-76
2021/01/12 15:40:48;;;;;;;7.25;1.60;;;;;;;5.22;73.30;101257.94;10436769;28;20075;-76
2021/01/12 15:45:51;;;;;;;12.93;1.80;;;;;;;5.16;72.92;101253.84;10425949;28;20041;-75
2021/01/12 15:50:51;;;;;;;9.85;2.13;;;;;;;5.22;74.55;101252.59;10424518;28;20053;-77
2021/01/12 15:55:55;;;;;;;8.68;1.70;;;;;;;4.99;73.38;101228.59;10439956;28;20433;-76
2021/01/12 16:00:55;;;;;;;10.52;2.00;;;;;;;5.33;73.85;101286.03;10403826;28;20040;-76
2021/01/12 16:07:38;;;;;;;11.43;2.33;;;;;;;5.19;75.34;101263.94;10423791;28;20041;-78
2021/01/12 16:12:55;;;;;;;;;;;;;;;;;;;;;
2021/01/12 16:18:19;;;;;;;15.05;2.15;;;;;;;4.42;78.74;101177.66;10410891;28;20568;-77
2021/01/12 16:23:39;;;;;;;13.68;2.55;;;;;;;5.30;80.07;101337.59;10447831;28;20048;-77
2021/01/12 16:28:43;;;;;;;13.57;3.13;;;;;;;5.20;81.05;101319.13;10441137;28;20074;-77
2021/01/12 16:33:43;;;;;;;16.25;2.65;;;;;;;4.94;81.37;101285.00;10433310;28;20375;-77
2021/01/12 16:38:44;;;;;;;9.98;2.13;;;;;;;5.23;81.33;101334.59;10455646;28;20044;-77
2021/01/12 16:43:57;;;;;;;17.52;2.10;;;;;;;5.02;80.90;101300.31;10426027;28;20041;-77
2021/01/12 16:49:03;;;;;;;9.10;1.55;;;;;;;4.93;82.99;101312.88;10436751;28;20045;-87
2021/01/12 16:54:04;;;;;;;12.68;2.30;;;;;;;4.96;84.10;101347.09;10414841;28;20048;-84
2021/01/12 16:59:06;;;;;;;15.25;1.90;;;;;;;4.80;85.16;101348.59;10414564;28;20124;-79
2021/01/12 17:04:08;;;;;;;11.27;2.37;;;;;;;4.64;86.05;101367.72;10432642;28;20456;-81
2021/01/12 17:09:09;;;;;;;;;;;;;;;4.56;86.80;101376.50;10424539;28;20079;-82
2021/01/12 17:14:10;;;;;;;15.50;2.03;;;;;;;4.49;86.41;101381.47;10441198;28;19974;-82
2021/01/12 17:19:11;;;;;;;14.38;2.40;;;;;;;4.34;86.94;101344.38;10433633;28;20054;-81
2021/01/12 17:24:13;;;;;;;14.83;3.00;;;;;;;4.68;86.58;101393.88;10435320;28;20050;-81
2021/01/12 17:29:26;;;;;;;15.38;3.25;;;;;;;4.23;85.51;101344.63;10442298;28;20052;-79
2021/01/12 17:34:26;;;;;;;;;;;;;;;4.63;85.62;101398.28;10415923;28;20028;-84
2021/01/12 17:39:39;;;;;;;8.77;1.65;;;;;;;4.32;85.47;101400.09;10431367;28;20688;-84
2021/01/12 17:44:39;;;;;;;17.13;1.30;;;;;;;4.33;84.32;101426.56;10409798;28;20067;-84
2021/01/12 17:49:41;;;;;;;8.90;1.45;;;;;;;4.23;84.25;101416.88;10435619;28;20412;-85
2021/01/12 17:54:53;;;;;;;9.67;1.63;;;;;;;4.22;85.00;101447.38;10412649;28;20132;-84
2021/01/12 17:59:56;;;;;;;9.18;1.48;;;;;;;2.79;86.14;101263.16;10442719;28;20044;-81
2021/01/12 18:04:57;;;;;;;15.55;3.33;;;;;;;4.28;88.86;101445.41;10423985;28;20039;-81
2021/01/12 18:09:58;;;;;;;13.02;2.30;;;;;;;3.21;88.07;101305.91;10433273;28;20053;-79
2021/01/12 18:14:59;;;;;;;14.15;2.35;;;;;;;4.21;87.56;101461.88;10401616;28;20114;-79
2021/01/12 18:20:00;;;;;;;8.88;2.13;;;;;;;3.37;87.57;101353.41;10451827;28;20075;-79
2021/01/12 18:25:06;;;;;;;49.95;21.65;;;;;;;3.71;88.48;101435.06;10438266;28;20049;-79
2021/01/12 18:30:08;;;;;;;24.88;6.00;;;;;;;3.47;88.58;101431.78;10416560;28;20067;-78
2021/01/12 18:35:12;;;;;;;18.45;5.40;;;;;;;3.63;89.95;101473.19;10440494;28;20044;-79
2021/01/12 18:40:13;;;;;;;19.52;5.32;;;;;;;3.62;90.37;101498.31;10440920;28;20045;-79
2021/01/12 18:45:14;;;;;;;9.65;2.53;;;;;;;3.37;91.83;101487.00;10452397;28;20037;-82
2021/01/12 18:50:15;;;;;;;8.40;1.83;;;;;;;3.46;91.64;101515.72;10454293;28;20040;-80
2021/01/12 18:55:15;;;;;;;12.65;2.30;;;;;;;3.27;91.56;101497.91;10431436;28;20729;-83
2021/01/12 19:00:16;;;;;;;10.30;1.73;;;;;;;3.30;90.52;101513.34;10417609;28;20158;-82
2021/01/12 19:05:17;;;;;;;10.77;2.03;;;;;;;3.17;90.97;101514.06;10422954;28;20041;-80
2021/01/12 19:10:18;;;;;;;8.07;1.55;;;;;;;3.25;90.95;101526.00;10415159;28;20037;-82
2021/01/12 19:15:28;;;;;;;9.95;1.63;;;;;;;3.25;91.08;101536.69;10406582;28;20036;-80
2021/01/12 19:20:29;;;;;;;11.97;1.83;;;;;;;2.93;90.95;101498.16;10395507;28;20064;-79
2021/01/12 19:25:30;;;;;;;13.75;2.28;;;;;;;3.22;91.65;101548.72;10415721;28;20056;-83
2021/01/12 19:30:31;;;;;;;15.75;2.95;;;;;;;2.53;91.32;101453.09;10411796;28;20568;-82
2021/01/12 19:35:34;;;;;;;12.20;2.72;;;;;;;3.10;91.12;101557.19;10414554;28;20034;-78
2021/01/12 19:40:35;;;;;;;13.27;2.58;;;;;;;3.27;91.01;101578.06;10441455;28;20051;-81
2021/01/12 19:45:36;;;;;;;16.15;4.45;;;;;;;3.07;90.48;101535.63;10429011;28;20036;-81
2021/01/12 19:50:39;;;;;;;12.17;3.90;;;;;;;3.08;89.67;101537.19;10460332;28;20064;-81
2021/01/12 19:55:40;;;;;;;15.25;2.33;;;;;;;3.54;90.05;101608.63;10420931;28;20333;-79
2021/01/12 20:00:41;;;;;;;14.00;3.47;;;;;;;3.44;90.43;101582.06;10395395;28;20371;-79
2021/01/12 20:05:42;;;;;;;14.35;2.67;;;;;;;3.21;90.60;101563.19;10426184;28;20097;-78
2021/01/12 20:10:43;;;;;;;13.32;2.25;;;;;;;3.46;91.96;101611.94;10399942;28;20071;-81
2021/01/12 20:15:44;;;;;;;17.70;2.47;;;;;;;3.44;92.64;101627.50;10431824;28;20040;-79
2021/01/12 20:20:47;;;;;;;12.07;2.13;;;;;;;3.37;93.22;101647.38;10422117;28;20072;-76
2021/01/12 20:25:52;;;;;;;;;;;;;;;3.33;93.75;101646.34;10430045;28;20120;-79
2021/01/12 20:30:58;;;;;;;15.68;2.20;;;;;;;3.00;94.30;101604.63;10429160;28;20020;-77
2021/01/12 20:36:00;;;;;;;12.05;2.28;;;;;;;3.32;94.15;101646.66;10435747;28;20048;-81
2021/01/12 20:41:04;;;;;;;21.70;2.72;;;;;;;3.34;94.37;101653.31;10434906;28;20040;-82
2021/01/12 20:46:05;;;;;;;15.10;2.60;;;;;;;3.30;93.63;101640.81;10445165;28;20115;-78
2021/01/12 20:51:06;;;;;;;20.38;2.05;;;;;;;3.42;92.21;101664.41;10433559;28;20040;-81
2021/01/12 20:56:07;;;;;;;12.48;2.58;;;;;;;3.50;91.56;101645.81;10445669;28;20075;-78
2021/01/12 21:01:07;;;;;;;12.10;2.75;;;;;;;3.70;90.63;101666.13;10407164;28;20060;-84
2021/01/12 21:06:08;;;;;;;14.30;3.55;;;;;;;3.60;89.92;101640.34;10414230;28;20064;-81
2021/01/12 21:11:08;;;;;;;16.35;5.38;;;;;;;2.87;89.58;101545.53;10426354;28;20040;-83
2021/01/12 21:16:09;;;;;;;31.38;9.43;;;;;;;2.88;89.85;101544.44;10412797;28;20489;-85
2021/01/12 21:21:09;;;;;;;16.60;3.45;;;;;;;3.35;90.28;101633.50;10430964;28;20051;-80
2021/01/12 21:26:10;;;;;;;16.35;2.95;;;;;;;3.48;90.62;101685.44;10396933;28;20036;-84
2021/01/12 21:31:10;;;;;;;12.60;2.88;;;;;;;3.03;91.00;101620.06;10392197;28;20044;-81
2021/01/12 21:36:13;;;;;;;14.35;3.42;;;;;;;3.15;91.74;101655.97;10430697;28;20059;-85
2021/01/12 21:41:13;;;;;;;14.40;2.20;;;;;;;3.27;93.74;101711.66;10433073;28;20125;-83
2021/01/12 21:46:14;;;;;;;8.93;1.85;;;;;;;2.88;94.04;101661.94;10424721;28;20036;-81
2021/01/12 21:51:16;;;;;;;9.30;1.90;;;;;;;1.97;95.13;101563.19;10441557;28;20048;-84
2021/01/12 21:56:20;;;;;;;8.98;2.05;;;;;;;2.07;94.73;101563.09;10408964;28;20094;-80
2021/01/12 22:01:28;;;;;;;13.10;4.22;;;;;;;2.88;95.25;101688.63;10415318;28;20044;-84
2021/01/12 22:06:29;;;;;;;16.42;4.25;;;;;;;2.89;96.93;101706.28;10430678;28;20441;-80
2021/01/12 22:11:31;;;;;;;15.05;4.45;;;;;;;2.81;96.12;101712.22;10409475;28;20048;-84
2021/01/12 22:16:33;;;;;;;;;;;;;;;2.87;97.30;101719.09;10408005;28;20036;-86
2021/01/12 22:21:45;;;;;;;15.93;3.17;;;;;;;2.79;97.90;101689.56;10432361;28;20027;-85
2021/01/12 22:26:45;;;;;;;16.80;2.60;;;;;;;3.14;97.33;101733.75;10429999;28;20101;-83
2021/01/12 22:31:46;;;;;;;16.63;2.30;;;;;;;3.09;96.39;101725.78;10444056;28;20053;-86
2021/01/12 22:36:46;;;;;;;11.00;1.80;;;;;;;2.88;95.33;101677.97;10424129;28;20045;-81
2021/01/12 22:41:46;;;;;;;12.40;1.67;;;;;;;3.13;94.71;101710.78;10424938;28;20037;-79
2021/01/12 22:46:47;;;;;;;14.30;1.95;;;;;;;3.01;94.94;101697.03;10410000;28;20045;-79
2021/01/12 22:51:47;;;;;;;17.02;1.90;;;;;;;3.13;93.01;101716.91;10392898;28;20049;-79
2021/01/12 22:56:48;;;;;;;18.25;1.95;;;;;;;3.28;92.29;101756.00;10425128;28;20639;-79
2021/01/12 23:01:48;;;;;;;13.30;1.70;;;;;;;2.92;91.43;101700.34;10413030;28;20052;-78
2021/01/12 23:06:49;;;;;;;20.70;2.35;;;;;;;2.95;90.93;101699.75;10419370;28;20134;-77
2021/01/12 23:11:50;;;;;;;15.38;1.70;;;;;;;3.17;90.82;101733.97;10439387;28;20389;-81
2021/01/12 23:16:50;;;;;;;13.60;1.80;;;;;;;3.24;90.27;101748.84;10404208;28;20037;-76